createdAt,value
2018-11-25T00:01:18.486Z,17.27
2018-11-25T00:06:22.576Z,16.80
2018-11-25T00:11:26.491Z,19.87
2018-11-25T00:16:30.348Z,28.60
2018-11-25T00:21:33.986Z,29.27
2018-11-25T00:26:40.738Z,33.17
2018-11-25T00:31:45.109Z,21.03
2018-11-25T00:36:49.366Z,19.67
2018-11-25T00:41:53.585Z,16.10
2018-11-25T00:46:58.788Z,17.37
2018-11-25T00:52:03.138Z,12.30
2018-11-25T00:57:07.092Z,12.50
2018-11-25T01:02:10.939Z,13.03
2018-11-25T01:07:15.072Z,9.50
2018-11-25T01:12:19.598Z,11.10
2018-11-25T01:17:24.340Z,11.97
2018-11-25T01:22:35.039Z,12.80
2018-11-25T01:27:42.773Z,12.60
2018-11-25T01:32:47.937Z,12.53
2018-11-25T01:37:51.600Z,11.97
2018-11-25T01:42:55.653Z,11.10
2018-11-25T01:48:00.526Z,8.90
2018-11-25T01:53:04.423Z,12.70
2018-11-25T01:58:08.567Z,12.53
2018-11-25T02:03:12.364Z,14.37
2018-11-25T02:08:16.342Z,14.10
2018-11-25T02:13:20.501Z,11.77
2018-11-25T02:18:24.469Z,12.03
2018-11-25T02:23:28.489Z,13.77
2018-11-25T02:28:33.014Z,12.53
2018-11-25T02:33:37.473Z,14.17
2018-11-25T02:38:41.219Z,14.67
2018-11-25T02:43:45.115Z,14.83
2018-11-25T02:48:48.742Z,10.40
2018-11-25T02:53:52.386Z,14.77
2018-11-25T02:58:57.357Z,15.50
2018-11-25T03:04:01.652Z,12.50
2018-11-25T03:09:06.960Z,14.13
2018-11-25T03:14:10.772Z,15.20
2018-11-25T03:19:14.723Z,13.10
2018-11-25T03:24:18.595Z,15.97
2018-11-25T03:29:27.687Z,12.10
2018-11-25T03:34:32.433Z,12.83
2018-11-25T03:39:36.655Z,11.13
2018-11-25T03:44:40.751Z,13.93
2018-11-25T03:49:44.852Z,11.73
2018-11-25T03:54:48.909Z,13.23
2018-11-25T03:59:53.074Z,11.40
2018-11-25T04:04:56.961Z,9.30
2018-11-25T04:10:01.152Z,11.17
2018-11-25T04:15:06.103Z,13.20
2018-11-25T04:20:13.589Z,9.27
2018-11-25T04:25:17.639Z,10.50
2018-11-25T04:30:21.624Z,9.20
2018-11-25T04:35:25.801Z,8.37
2018-11-25T04:40:29.727Z,12.13
2018-11-25T04:45:33.889Z,9.53
2018-11-25T04:50:37.832Z,12.30
2018-11-25T04:55:41.759Z,11.60
2018-11-25T05:00:46.432Z,9.13
2018-11-25T05:05:50.419Z,8.20
2018-11-25T05:10:58.489Z,8.57
2018-11-25T05:16:02.640Z,15.53
2018-11-25T05:21:07.666Z,8.00
2018-11-25T05:26:11.338Z,16.00
2018-11-25T05:31:17.737Z,8.60
2018-11-25T05:36:21.901Z,11.97
2018-11-25T05:41:26.357Z,11.40
2018-11-25T05:46:30.235Z,12.47
2018-11-25T05:51:36.883Z,9.60
2018-11-25T05:56:40.653Z,13.27
2018-11-25T06:01:44.735Z,11.90
2018-11-25T06:06:49.943Z,12.50
2018-11-25T06:11:55.823Z,15.40
2018-11-25T06:17:01.076Z,15.60
2018-11-25T06:22:06.119Z,16.33
2018-11-25T06:27:16.917Z,16.43
2018-11-25T06:32:25.196Z,14.03
2018-11-25T06:37:34.667Z,15.57
2018-11-25T06:42:42.516Z,15.17
2018-11-25T06:48:01.097Z,19.10
2018-11-25T06:53:06.872Z,15.80
2018-11-25T06:58:13.127Z,16.00
2018-11-25T07:03:17.749Z,14.73
2018-11-25T07:08:21.871Z,15.80
2018-11-25T07:13:27.631Z,15.40
2018-11-25T07:18:31.568Z,16.00
2018-11-25T07:23:35.794Z,16.53
2018-11-25T07:28:39.648Z,16.70
2018-11-25T07:33:44.307Z,10.77
2018-11-25T07:38:48.112Z,17.60
2018-11-25T07:43:54.099Z,16.80
2018-11-25T07:48:58.843Z,16.00
2018-11-25T07:54:03.801Z,18.20
2018-11-25T07:59:30.356Z,15.00
2018-11-25T08:04:39.774Z,14.20
2018-11-25T08:09:46.951Z,13.57
2018-11-25T08:14:51.279Z,16.87
2018-11-25T08:19:56.609Z,19.47
2018-11-25T08:25:00.742Z,18.13
2018-11-25T08:30:06.073Z,12.07
2018-11-25T08:35:11.325Z,15.63
2018-11-25T08:40:29.815Z,16.13
2018-11-25T08:45:38.751Z,18.87
2018-11-25T08:50:42.920Z,12.37
2018-11-25T08:55:52.879Z,14.27
2018-11-25T09:00:56.669Z,15.63
2018-11-25T09:06:01.571Z,16.00
2018-11-25T09:11:05.368Z,14.13
2018-11-25T09:16:09.827Z,15.73
2018-11-25T09:21:14.283Z,14.77
2018-11-25T09:26:18.360Z,11.03
2018-11-25T09:31:28.175Z,14.80
2018-11-25T09:36:32.322Z,10.93
2018-11-25T09:41:36.158Z,12.47
2018-11-25T09:46:42.650Z,10.77
2018-11-25T09:51:50.308Z,10.40
2018-11-25T09:56:55.702Z,9.40
2018-11-25T10:02:01.101Z,12.37
2018-11-25T10:07:05.218Z,10.97
2018-11-25T10:12:09.363Z,10.20
2018-11-25T10:17:13.209Z,8.70
2018-11-25T10:22:32.188Z,10.43
2018-11-25T10:27:36.821Z,9.00
2018-11-25T10:32:42.316Z,10.93
2018-11-25T10:37:44.704Z,9.53
2018-11-25T10:42:49.314Z,10.10
2018-11-25T10:47:52.939Z,11.50
2018-11-25T10:52:56.565Z,10.40
2018-11-25T10:58:00.440Z,9.73
2018-11-25T11:03:11.295Z,8.17
2018-11-25T11:08:15.973Z,9.67
2018-11-25T11:13:20.857Z,12.30
2018-11-25T11:18:24.551Z,11.60
2018-11-25T11:23:28.188Z,6.20
2018-11-25T11:28:32.103Z,11.80
2018-11-25T11:33:37.835Z,12.47
2018-11-25T11:38:41.924Z,13.20
2018-11-25T11:43:45.896Z,15.63
2018-11-25T11:48:49.519Z,11.00
2018-11-25T11:53:53.744Z,13.80
2018-11-25T11:58:57.364Z,12.30
2018-11-25T12:04:01.326Z,20.13
2018-11-25T12:09:08.924Z,15.47
2018-11-25T12:14:12.623Z,14.17
2018-11-25T12:19:16.604Z,13.50
2018-11-25T12:24:26.397Z,10.50
2018-11-25T12:29:39.142Z,11.90
2018-11-25T12:34:43.697Z,15.10
2018-11-25T12:39:47.644Z,13.10
2018-11-25T12:44:51.678Z,10.97
2018-11-25T12:49:58.700Z,9.33
2018-11-25T12:55:05.950Z,12.70
2018-11-25T13:00:19.735Z,10.83
2018-11-25T13:05:23.412Z,13.37
2018-11-25T13:10:29.458Z,12.20
2018-11-25T13:15:33.228Z,10.63
2018-11-25T13:20:37.769Z,13.73
2018-11-25T13:25:41.639Z,10.63
2018-11-25T13:30:49.400Z,9.70
2018-11-25T13:35:53.273Z,11.87
2018-11-25T13:40:57.212Z,10.27
2018-11-25T13:46:01.254Z,7.40
2018-11-25T13:51:08.989Z,8.33
2018-11-25T13:56:13.143Z,8.10
2018-11-25T14:01:17.200Z,10.03
2018-11-25T14:06:23.862Z,8.50
2018-11-25T14:11:30.015Z,9.17
2018-11-25T14:16:35.053Z,11.10
2018-11-25T14:21:38.006Z,10.37
2018-11-25T14:26:47.004Z,8.60
2018-11-25T14:31:50.873Z,8.00
2018-11-25T14:36:54.792Z,6.80
2018-11-25T14:41:58.967Z,6.77
2018-11-25T14:47:02.714Z,6.53
2018-11-25T14:52:06.768Z,6.47
2018-11-25T14:57:10.700Z,7.63
2018-11-25T15:02:14.533Z,6.70
2018-11-25T15:07:18.196Z,7.23
2018-11-25T15:12:22.990Z,5.70
2018-11-25T15:17:26.807Z,6.70
2018-11-25T15:22:30.516Z,6.27
2018-11-25T15:27:34.161Z,5.80
2018-11-25T15:32:37.852Z,8.40
2018-11-25T15:37:43.681Z,6.67
2018-11-25T15:42:47.426Z,7.97
2018-11-25T15:48:00.098Z,8.87
2018-11-25T15:53:04.135Z,5.90
2018-11-25T15:58:08.516Z,6.17
2018-11-25T16:03:13.067Z,6.33
2018-11-25T16:08:22.767Z,6.37
2018-11-25T16:13:27.928Z,5.57
2018-11-25T16:18:34.278Z,5.53
2018-11-25T16:23:38.220Z,5.73
2018-11-25T16:28:43.638Z,7.57
2018-11-25T16:33:47.305Z,8.77
2018-11-25T16:38:54.522Z,8.73
2018-11-25T16:44:02.230Z,6.30
2018-11-25T16:49:06.479Z,6.77
2018-11-25T16:54:10.426Z,9.17
2018-11-25T16:59:14.136Z,7.27
2018-11-25T17:04:18.068Z,8.83
2018-11-25T17:09:23.119Z,8.47
2018-11-25T17:14:47.159Z,10.00
2018-11-25T17:19:55.551Z,8.90
2018-11-25T17:25:00.930Z,9.43
2018-11-25T17:30:11.532Z,7.40
2018-11-25T17:35:20.101Z,9.00
2018-11-25T17:40:24.126Z,11.43
2018-11-25T17:45:27.812Z,9.13
2018-11-25T17:50:31.643Z,7.73
2018-11-25T17:55:35.603Z,9.97
2018-11-25T18:00:47.048Z,8.67
2018-11-25T18:05:52.019Z,9.60
2018-11-25T18:11:00.045Z,7.70
2018-11-25T18:16:05.416Z,11.50
2018-11-25T18:21:10.721Z,6.67
2018-11-25T18:26:14.717Z,10.67
2018-11-25T18:31:18.475Z,8.67
2018-11-25T18:36:22.484Z,8.60
2018-11-25T18:41:26.855Z,7.57
2018-11-25T18:46:33.558Z,7.00
2018-11-25T18:51:37.525Z,9.20
2018-11-25T18:56:41.532Z,9.93
2018-11-25T19:01:57.041Z,9.87
2018-11-25T19:07:04.455Z,9.23
2018-11-25T19:12:09.269Z,11.10
2018-11-25T19:17:13.011Z,10.80
2018-11-25T19:22:16.925Z,11.47
2018-11-25T19:27:20.781Z,9.43
2018-11-25T19:32:27.485Z,8.00
2018-11-25T19:37:35.327Z,10.87
2018-11-25T19:42:39.745Z,9.40
2018-11-25T19:47:57.307Z,10.40
2018-11-25T19:53:02.382Z,8.30
2018-11-25T19:58:07.110Z,7.00
2018-11-25T20:03:11.525Z,6.87
2018-11-25T20:08:17.559Z,9.80
2018-11-25T20:13:21.770Z,8.97
2018-11-25T20:18:33.358Z,9.60
2018-11-25T20:23:38.330Z,8.47
2018-11-25T20:28:45.545Z,8.97
2018-11-25T20:33:52.568Z,8.30
2018-11-25T20:39:01.678Z,7.33
2018-11-25T20:44:06.360Z,7.87
2018-11-25T20:49:10.494Z,7.07
2018-11-25T20:54:14.972Z,7.27
2018-11-25T21:04:28.739Z,6.20
2018-11-25T21:09:32.814Z,8.13
2018-11-25T21:14:36.817Z,6.30
2018-11-25T21:19:47.735Z,5.80
2018-11-25T21:24:52.063Z,5.30
2018-11-25T21:29:57.001Z,6.70
2018-11-25T21:35:01.541Z,6.27
2018-11-25T21:40:08.949Z,6.93
2018-11-25T21:45:14.719Z,5.60
2018-11-25T21:50:31.982Z,7.53
2018-11-25T21:55:36.909Z,4.70
2018-11-25T22:00:52.163Z,6.10
2018-11-25T22:05:58.943Z,5.37
2018-11-25T22:11:03.273Z,6.33
2018-11-25T22:16:18.185Z,5.07
2018-11-25T22:21:23.444Z,3.20
2018-11-25T22:26:27.954Z,5.23
2018-11-25T22:31:35.591Z,6.63
2018-11-25T22:36:41.006Z,5.33
2018-11-25T22:41:46.413Z,4.70
2018-11-25T22:46:50.103Z,5.23
2018-11-25T22:51:54.040Z,7.20
2018-11-25T22:56:58.575Z,5.20
2018-11-25T23:02:06.519Z,6.00
2018-11-25T23:07:13.174Z,5.70
2018-11-25T23:12:17.664Z,5.10
2018-11-25T23:17:27.267Z,4.17
2018-11-25T23:22:31.588Z,5.20
2018-11-25T23:27:36.184Z,5.90
2018-11-25T23:32:39.822Z,4.33
2018-11-25T23:37:43.566Z,4.80
2018-11-25T23:42:48.404Z,5.50
2018-11-25T23:47:52.309Z,4.90
2018-11-25T23:52:56.271Z,5.53
2018-11-25T23:58:00.228Z,4.70
